createdAt,value
2023-03-10T00:00:56.013Z,93795.8
2023-03-10T00:01:58.501Z,93789.5
2023-03-10T00:03:00.751Z,93782.3
2023-03-10T00:04:03.563Z,93784
2023-03-10T00:05:06.150Z,93785.3
2023-03-10T00:06:08.391Z,93777.4
2023-03-10T00:07:10.810Z,93773.6
2023-03-10T00:08:12.470Z,93775.6
2023-03-10T00:09:14.953Z,93773.2
2023-03-10T00:10:17.546Z,93776.7
2023-03-10T00:11:20.090Z,93771.5
2023-03-10T00:12:22.412Z,93774.4
2023-03-10T00:13:24.675Z,93765.6
2023-03-10T00:14:26.697Z,93766.5
2023-03-10T00:15:29.556Z,93760.6
2023-03-10T00:16:32.130Z,93760.9
2023-03-10T00:17:34.462Z,93754.9
2023-03-10T00:18:37.017Z,93755.1
2023-03-10T00:19:39.556Z,93757.6
2023-03-10T00:20:41.781Z,93749
2023-03-10T00:21:44.304Z,93746.7
2023-03-10T00:22:46.843Z,93748.3
2023-03-10T00:23:49.362Z,93753.8
2023-03-10T00:24:51.887Z,93747.1
2023-03-10T00:25:54.709Z,93747.7
2023-03-10T00:26:57.316Z,93746.2
2023-03-10T00:27:59.568Z,93750
2023-03-10T00:29:02.143Z,93745
2023-03-10T00:30:04.634Z,93747
2023-03-10T00:31:07.634Z,93742
2023-03-10T00:32:10.680Z,93745.1
2023-03-10T00:33:12.736Z,93740.1
2023-03-10T00:34:14.680Z,93741.4
2023-03-10T00:35:17.174Z,93739.5
2023-03-10T00:36:19.747Z,93740.1
2023-03-10T00:37:22.288Z,93740.9
2023-03-10T00:38:24.523Z,93736.9
2023-03-10T00:39:27.022Z,93738.9
2023-03-10T00:40:29.256Z,93735.5
2023-03-10T00:41:31.844Z,93738
2023-03-10T00:42:34.557Z,93735.4
2023-03-10T00:43:37.105Z,93721.3
2023-03-10T00:44:39.618Z,93720.6
2023-03-10T00:45:42.110Z,93723.3
2023-03-10T00:46:45.159Z,93720
2023-03-10T00:47:47.608Z,93716.1
2023-03-10T00:48:49.332Z,93719.3
2023-03-10T00:49:51.291Z,93722.5
2023-03-10T00:50:53.801Z,93719.9
2023-03-10T00:51:56.091Z,93718
2023-03-10T00:52:58.617Z,93715.1
2023-03-10T00:54:00.851Z,93717.7
2023-03-10T00:55:03.139Z,93712.3
2023-03-10T00:56:05.404Z,93710.9
2023-03-10T00:57:07.994Z,93710.4
2023-03-10T00:58:10.239Z,93708.8
2023-03-10T00:59:12.734Z,93705.5
2023-03-10T01:00:15.326Z,93704.1
2023-03-10T01:01:18.162Z,93702.5
2023-03-10T01:02:20.827Z,93700.5
2023-03-10T01:03:23.372Z,93699.8
2023-03-10T01:04:25.894Z,93693.2
2023-03-10T01:05:28.530Z,93690
2023-03-10T01:06:30.767Z,93686.9
2023-03-10T01:07:33.032Z,93685.1
2023-03-10T01:08:35.274Z,93681.4
2023-03-10T01:09:37.802Z,93687.1
2023-03-10T01:10:40.018Z,93681.9
2023-03-10T01:11:42.560Z,93682.1
2023-03-10T01:12:45.159Z,93672.6
2023-03-10T01:13:47.730Z,93680.5
2023-03-10T01:14:50.446Z,93670.8
2023-03-10T01:15:52.773Z,93669.5
2023-03-10T01:16:55.133Z,93667.9
2023-03-10T01:17:57.465Z,93664.9
2023-03-10T01:18:59.816Z,93661.9
2023-03-10T01:20:02.116Z,93657.3
2023-03-10T01:21:04.372Z,93659.3
2023-03-10T01:22:06.931Z,93651.2
2023-03-10T01:23:09.482Z,93648.9
2023-03-10T01:24:11.980Z,93645.6
2023-03-10T01:25:14.500Z,93640.9
2023-03-10T01:27:21.977Z,93642.3
2023-03-10T01:28:24.354Z,93641.2
2023-03-10T01:29:26.940Z,93637.8
2023-03-10T01:30:29.441Z,93638
2023-03-10T01:31:32.265Z,93637.7
2023-03-10T01:32:34.591Z,93633
2023-03-10T01:33:37.112Z,93630.1
2023-03-10T01:34:39.356Z,93626.6
2023-03-10T01:35:41.581Z,93622.9
2023-03-10T01:36:44.175Z,93624
2023-03-10T01:37:46.705Z,93621
2023-03-10T01:38:48.990Z,93615.1
2023-03-10T01:39:51.481Z,93618.1
2023-03-10T01:40:54.011Z,93619.4
2023-03-10T01:41:56.521Z,93614.9
2023-03-10T01:42:59.018Z,93614.7
2023-03-10T01:44:01.650Z,93612.2
2023-03-10T01:45:04.164Z,93607.8
2023-03-10T01:46:06.820Z,93605.1
2023-03-10T01:47:09.406Z,93607.2
2023-03-10T01:48:11.962Z,93599.6
2023-03-10T01:49:14.214Z,93596.1
2023-03-10T01:50:16.498Z,93594.3
2023-03-10T01:51:18.450Z,93596
2023-03-10T01:52:20.159Z,93595.3
2023-03-10T01:53:22.405Z,93585.2
2023-03-10T01:54:24.630Z,93588.6
2023-03-10T01:55:27.110Z,93586.8
2023-03-10T01:56:29.643Z,93580.5
2023-03-10T01:57:31.875Z,93578
2023-03-10T01:58:34.309Z,93577.1
2023-03-10T01:59:36.982Z,93573.3
2023-03-10T02:00:39.561Z,93572.5
2023-03-10T02:01:42.062Z,93572.5
2023-03-10T02:02:44.611Z,93566.4
2023-03-10T02:03:47.106Z,93566.5
2023-03-10T02:04:49.828Z,93567.8
2023-03-10T02:05:52.358Z,93566.9
2023-03-10T02:06:54.853Z,93565.4
2023-03-10T02:07:57.351Z,93558.6
2023-03-10T02:08:59.846Z,93559.6
2023-03-10T02:10:01.791Z,93555.7
2023-03-10T02:11:04.024Z,93552.8
2023-03-10T02:12:06.249Z,93555.5
2023-03-10T02:13:08.777Z,93552.6
2023-03-10T02:14:11.092Z,93544.5
2023-03-10T02:15:13.386Z,93543.5
2023-03-10T02:16:16.106Z,93540.8
2023-03-10T02:17:18.547Z,93538.9
2023-03-10T02:18:21.094Z,93533.5
2023-03-10T02:19:23.588Z,93529.5
2023-03-10T02:20:25.819Z,93530.5
2023-03-10T02:21:28.420Z,93527.7
2023-03-10T02:22:30.650Z,93526.3
2023-03-10T02:23:33.156Z,93521.9
2023-03-10T02:24:35.097Z,93520
2023-03-10T02:25:37.600Z,93520.3
2023-03-10T02:26:40.114Z,93524.3
2023-03-10T02:27:42.363Z,93517.7
2023-03-10T02:28:44.884Z,93514.1
2023-03-10T02:30:52.436Z,93507.5
2023-03-10T02:31:55.038Z,93507.2
2023-03-10T02:32:57.435Z,93505.8
2023-03-10T02:33:59.356Z,93508.4
2023-03-10T02:35:01.916Z,93501.5
2023-03-10T02:36:04.576Z,93502.8
2023-03-10T02:37:07.249Z,93503
2023-03-10T02:38:09.744Z,93500.6
2023-03-10T02:39:12.007Z,93504
2023-03-10T02:40:14.516Z,93499
2023-03-10T02:41:16.995Z,93494
2023-03-10T02:42:19.209Z,93493.5
2023-03-10T02:43:21.741Z,93493.3
2023-03-10T02:44:24.246Z,93490.1
2023-03-10T02:45:26.929Z,93483.8
2023-03-10T02:46:29.738Z,93482.9
2023-03-10T02:47:32.070Z,93478.3
2023-03-10T02:48:34.664Z,93480.5
2023-03-10T02:49:36.928Z,93475.5
2023-03-10T02:50:39.438Z,93470.3
2023-03-10T02:51:41.440Z,93473.6
2023-03-10T02:52:43.966Z,93472
2023-03-10T02:53:45.974Z,93475.3
2023-03-10T02:54:47.956Z,93469.5
2023-03-10T02:55:50.536Z,93471.1
2023-03-10T02:56:53.043Z,93472.1
2023-03-10T02:57:55.300Z,93470.7
2023-03-10T02:58:57.809Z,93471.9
2023-03-10T02:59:59.548Z,93469.7
2023-03-10T03:01:02.361Z,93468.6
2023-03-10T03:02:05.033Z,93464.1
2023-03-10T03:03:07.322Z,93468.3
2023-03-10T03:04:10.089Z,93465.8
2023-03-10T03:05:12.157Z,93467.3
2023-03-10T03:06:14.841Z,93467.5
2023-03-10T03:07:17.050Z,93469.5
2023-03-10T03:08:19.569Z,93466.7
2023-03-10T03:09:21.835Z,93463.2
2023-03-10T03:10:24.360Z,93460.3
2023-03-10T03:11:26.843Z,93463.2
2023-03-10T03:12:28.821Z,93463.2
2023-03-10T03:13:31.058Z,93464.9
2023-03-10T03:14:33.585Z,93460
2023-03-10T03:15:35.257Z,93460.2
2023-03-10T03:16:37.809Z,93453.7
2023-03-10T03:17:40.437Z,93457.1
2023-03-10T03:18:42.976Z,93452.3
2023-03-10T03:19:45.214Z,93455.7
2023-03-10T03:20:47.724Z,93455.4
2023-03-10T03:21:50.337Z,93448.1
2023-03-10T03:22:52.591Z,93456.9
2023-03-10T03:23:55.193Z,93457.3
2023-03-10T03:24:57.703Z,93455.2
2023-03-10T03:25:59.928Z,93450.1
2023-03-10T03:27:02.184Z,93446.1
2023-03-10T03:28:04.750Z,93451.3
2023-03-10T03:29:07.307Z,93455.3
2023-03-10T03:30:09.022Z,93462.2
2023-03-10T03:31:11.543Z,93468.3
2023-03-10T03:32:14.370Z,93464.1
2023-03-10T03:33:16.734Z,93460
2023-03-10T03:34:18.979Z,93460.5
2023-03-10T03:35:21.528Z,93460
2023-03-10T03:36:23.782Z,93462.5
2023-03-10T03:37:26.345Z,93460
2023-03-10T03:38:28.871Z,93456.2
2023-03-10T03:39:31.770Z,93457.1
2023-03-10T03:40:34.460Z,93461.5
2023-03-10T03:41:36.818Z,93468.9
2023-03-10T03:42:39.031Z,93479.5
2023-03-10T03:43:41.307Z,93481.8
2023-03-10T03:44:43.538Z,93484.9
2023-03-10T03:45:45.988Z,93481.6
2023-03-10T03:46:48.607Z,93479.6
2023-03-10T03:47:50.691Z,93480.6
2023-03-10T03:48:53.310Z,93478
2023-03-10T03:49:55.826Z,93491.1
2023-03-10T03:50:58.033Z,93496.7
2023-03-10T03:52:00.032Z,93500.8
2023-03-10T03:53:02.894Z,93488.9
2023-03-10T03:54:05.231Z,93523.1
2023-03-10T03:55:07.820Z,93501.9
2023-03-10T03:56:10.071Z,93550
2023-03-10T03:57:12.344Z,93560.6
2023-03-10T03:58:14.605Z,93561.1
2023-03-10T03:59:17.118Z,93563.5
2023-03-10T04:00:19.633Z,93566.6
2023-03-10T04:01:21.901Z,93570
2023-03-10T04:02:24.895Z,93572
2023-03-10T04:03:27.712Z,93574.5
2023-03-10T04:04:30.241Z,93565.2
2023-03-10T04:05:32.543Z,93567.4
2023-03-10T04:06:35.060Z,93570.4
2023-03-10T04:07:37.556Z,93566.5
2023-03-10T04:08:40.046Z,93570
2023-03-10T04:09:42.609Z,93571.5
2023-03-10T04:10:44.859Z,93579.1
2023-03-10T04:11:47.359Z,93579.5
2023-03-10T04:12:49.576Z,93580
2023-03-10T04:13:52.088Z,93578.5
2023-03-10T04:14:54.437Z,93576.8
2023-03-10T04:15:57.207Z,93577.5
2023-03-10T04:16:59.811Z,93575.7
2023-03-10T04:18:02.327Z,93576.8
2023-03-10T04:19:04.818Z,93583.9
2023-03-10T04:21:12.453Z,93584.8
2023-03-10T04:22:14.977Z,93580
2023-03-10T04:23:17.241Z,93576.9
2023-03-10T04:24:19.793Z,93578.1
2023-03-10T04:25:22.300Z,93577.8
2023-03-10T04:26:24.850Z,93575.2
2023-03-10T04:27:27.074Z,93573.1
2023-03-10T04:28:29.724Z,93570.6
2023-03-10T04:29:31.670Z,93568.7
2023-03-10T04:30:34.158Z,93563.7
2023-03-10T04:31:37.116Z,93568.6
2023-03-10T04:32:39.822Z,93564.5
2023-03-10T04:33:42.185Z,93565.8
2023-03-10T04:34:44.701Z,93564.9
2023-03-10T04:35:47.039Z,93565.8
2023-03-10T04:36:49.155Z,93571.8
2023-03-10T04:37:51.140Z,93565
2023-03-10T04:38:53.361Z,93566.2
2023-03-10T04:39:55.569Z,93570.1
2023-03-10T04:40:57.509Z,93569.7
2023-03-10T04:42:00.044Z,93565.3
2023-03-10T04:43:02.530Z,93570.2
2023-03-10T04:44:04.758Z,93567.3
2023-03-10T04:45:07.256Z,93570
2023-03-10T04:46:10.061Z,93565.5
2023-03-10T04:47:12.735Z,93564
2023-03-10T04:48:14.952Z,93565.5
2023-03-10T04:49:17.159Z,93566.8
2023-03-10T04:50:19.385Z,93564.9
2023-03-10T04:51:21.354Z,93565.7
2023-03-10T04:52:23.667Z,93570.8
2023-03-10T04:53:26.193Z,93573.2
2023-03-10T04:54:28.698Z,93565.2
2023-03-10T04:55:31.185Z,93575.6
2023-03-10T04:56:33.409Z,93564.1
2023-03-10T04:57:35.368Z,93571.8
2023-03-10T04:58:37.346Z,93567.9
2023-03-10T04:59:39.872Z,93574.4
2023-03-10T05:01:47.407Z,93567.6
2023-03-10T05:02:50.144Z,93566.8
2023-03-10T05:03:52.432Z,93560.7
2023-03-10T05:04:55.017Z,93564.4
2023-03-10T05:05:57.588Z,93569.7
2023-03-10T05:06:59.866Z,93566.6
2023-03-10T05:08:02.495Z,93562.3
2023-03-10T05:09:04.780Z,93562.3
2023-03-10T05:10:07.077Z,93571.3
2023-03-10T05:11:09.574Z,93562.5
2023-03-10T05:12:12.150Z,93561.1
2023-03-10T05:13:14.683Z,93563.5
2023-03-10T05:14:17.215Z,93560.3
2023-03-10T05:15:19.464Z,93566.6
2023-03-10T05:16:22.131Z,93555.4
2023-03-10T05:17:24.899Z,93569.2
2023-03-10T05:18:27.409Z,93566.6
2023-03-10T05:19:30.027Z,93565
2023-03-10T05:20:32.537Z,93564.5
2023-03-10T05:21:34.782Z,93567
2023-03-10T05:22:36.724Z,93563.1
2023-03-10T05:23:39.406Z,93560.9
2023-03-10T05:24:41.671Z,93562
2023-03-10T05:25:43.989Z,93561.8
2023-03-10T05:26:46.491Z,93562.4
2023-03-10T05:27:48.758Z,93565.6
2023-03-10T05:28:51.348Z,93568.3
2023-03-10T05:29:53.610Z,93568.3
2023-03-10T05:30:55.819Z,93563.8
2023-03-10T05:31:58.081Z,93571.1
2023-03-10T05:33:00.672Z,93569.7
2023-03-10T05:34:03.188Z,93570.6
2023-03-10T05:35:05.772Z,93560
2023-03-10T05:36:08.174Z,93568
2023-03-10T05:37:10.855Z,93570.7
2023-03-10T05:38:13.393Z,93565.9
2023-03-10T05:39:15.970Z,93570.4
2023-03-10T05:40:18.179Z,93566.9
2023-03-10T05:41:20.431Z,93570
2023-03-10T05:42:22.964Z,93568.3
2023-03-10T05:43:25.458Z,93571.2
2023-03-10T05:44:27.981Z,93565.9
2023-03-10T05:45:30.498Z,93565
2023-03-10T05:46:32.715Z,93574.8
2023-03-10T05:47:35.304Z,93571.8
2023-03-10T05:48:37.651Z,93563.5
2023-03-10T05:49:40.537Z,93562.9
2023-03-10T05:50:42.829Z,93560.8
2023-03-10T05:51:45.374Z,93556.3
2023-03-10T05:52:47.311Z,93554.7
2023-03-10T05:53:49.835Z,93557.2
2023-03-10T05:54:52.117Z,93559
2023-03-10T05:55:54.639Z,93551.2
2023-03-10T05:56:57.157Z,93536.7
2023-03-10T05:57:59.097Z,93535.6
2023-03-10T05:59:01.364Z,93524.7
2023-03-10T06:00:03.876Z,93528.6
2023-03-10T06:01:06.484Z,93526.9
2023-03-10T06:02:09.006Z,93523.6
2023-03-10T06:03:12.093Z,93530.4
2023-03-10T06:04:14.803Z,93524.7
2023-03-10T06:05:16.614Z,93527.4
2023-03-10T06:06:18.918Z,93520.2
2023-03-10T06:07:21.437Z,93527.3
2023-03-10T06:08:23.656Z,93522.3
2023-03-10T06:09:25.600Z,93517.8
2023-03-10T06:10:28.191Z,93508.6
2023-03-10T06:11:30.761Z,93509.4
2023-03-10T06:12:33.284Z,93510.1
2023-03-10T06:13:35.835Z,93512.5
2023-03-10T06:14:38.443Z,93510.8
2023-03-10T06:15:40.724Z,93516.8
2023-03-10T06:16:42.947Z,93511.4
2023-03-10T06:17:45.576Z,93512.6
2023-03-10T06:18:48.113Z,93506.3
2023-03-10T06:19:50.311Z,93500.9
2023-03-10T06:20:52.789Z,93505.3
2023-03-10T06:21:55.304Z,93511.7
2023-03-10T06:22:57.851Z,93499.5
2023-03-10T06:24:00.350Z,93502.1
2023-03-10T06:25:02.632Z,93496.2
2023-03-10T06:26:05.261Z,93495.1
2023-03-10T06:27:07.868Z,93493.4
2023-03-10T06:28:11.270Z,93483.2
2023-03-10T06:29:13.218Z,93481
2023-03-10T06:30:15.751Z,93476.2
2023-03-10T06:31:18.405Z,93473.9
2023-03-10T06:32:20.942Z,93479.2
2023-03-10T06:33:23.597Z,93484.3
2023-03-10T06:34:26.127Z,93489.4
2023-03-10T06:35:28.662Z,93487.5
2023-03-10T06:36:31.224Z,93485.6
2023-03-10T06:37:33.777Z,93479.5
2023-03-10T06:38:36.027Z,93470
2023-03-10T06:39:38.271Z,93468.6
2023-03-10T06:40:40.286Z,93468.7
2023-03-10T06:41:43.033Z,93461.1
2023-03-10T06:42:45.029Z,93459.9
2023-03-10T06:43:47.553Z,93462
2023-03-10T06:44:50.860Z,93469.5
2023-03-10T06:45:53.754Z,93480.6
2023-03-10T06:46:56.451Z,93487.3
2023-03-10T06:47:58.668Z,93487.6
2023-03-10T06:49:00.935Z,93482.4
2023-03-10T06:50:03.192Z,93466.8
2023-03-10T06:51:05.114Z,93459
2023-03-10T06:52:07.392Z,93470.6
2023-03-10T06:53:09.331Z,93456.9
2023-03-10T06:54:11.548Z,93452.3
2023-03-10T06:55:14.037Z,93448.9
2023-03-10T06:56:16.320Z,93444.6
2023-03-10T06:58:24.056Z,93451.4
2023-03-10T06:59:26.627Z,93458.5
2023-03-10T07:00:28.870Z,93454.8
2023-03-10T07:01:31.904Z,93444
2023-03-10T07:02:34.635Z,93445.5
2023-03-10T07:03:36.904Z,93440.9
2023-03-10T07:04:39.813Z,93436.2
2023-03-10T07:05:41.944Z,93435.2
2023-03-10T07:06:44.188Z,93436.8
2023-03-10T07:07:46.733Z,93434.9
2023-03-10T07:08:49.296Z,93432.7
2023-03-10T07:09:51.545Z,93429.1
2023-03-10T07:10:54.066Z,93429.6
2023-03-10T07:11:56.037Z,93437.1
2023-03-10T07:12:58.287Z,93433.7
2023-03-10T07:14:01.018Z,93433.8
2023-03-10T07:15:03.578Z,93433.4
2023-03-10T07:16:06.116Z,93427.3
2023-03-10T07:17:09.050Z,93437.1
2023-03-10T07:18:11.695Z,93441.6
2023-03-10T07:19:14.250Z,93443.4
2023-03-10T07:20:16.492Z,93444.4
2023-03-10T07:21:19.006Z,93441.6
2023-03-10T07:22:21.516Z,93445.5
2023-03-10T07:23:24.429Z,93450.7
2023-03-10T07:24:27.239Z,93457.4
2023-03-10T07:25:30.181Z,93455.2
2023-03-10T07:26:32.710Z,93453.5
2023-03-10T07:27:35.285Z,93457.4
2023-03-10T07:28:37.563Z,93457
2023-03-10T07:29:40.118Z,93459.7
2023-03-10T07:30:42.809Z,93461.2
2023-03-10T07:31:45.306Z,93456.9
2023-03-10T07:32:47.940Z,93456.5
2023-03-10T07:33:50.340Z,93448.9
2023-03-10T07:34:52.901Z,93449.2
2023-03-10T07:35:55.416Z,93450.2
2023-03-10T07:36:58.057Z,93452.6
2023-03-10T07:38:00.271Z,93447.2
2023-03-10T07:39:02.780Z,93444.1
2023-03-10T07:40:04.743Z,93442.1
2023-03-10T07:41:06.971Z,93438.4
2023-03-10T07:42:09.235Z,93442.6
2023-03-10T07:43:12.289Z,93440.5
2023-03-10T07:44:14.519Z,93439.2
2023-03-10T07:45:17.263Z,93442.1
2023-03-10T07:46:20.225Z,93447.8
2023-03-10T07:47:22.763Z,93450.2
2023-03-10T07:48:25.048Z,93451.7
2023-03-10T07:49:27.322Z,93438.4
2023-03-10T07:50:29.502Z,93438.4
2023-03-10T07:51:32.064Z,93441.8
2023-03-10T07:52:34.627Z,93447.4
2023-03-10T07:53:36.957Z,93442.3
2023-03-10T07:54:39.442Z,93435.4
2023-03-10T07:55:41.429Z,93437.9
2023-03-10T07:56:43.961Z,93440.7
2023-03-10T07:57:46.542Z,93438.7
2023-03-10T07:58:48.823Z,93436
2023-03-10T07:59:51.083Z,93431.2
2023-03-10T08:00:53.680Z,93433.2
2023-03-10T08:01:56.302Z,93430.8
2023-03-10T08:02:58.835Z,93436.6
2023-03-10T08:04:01.492Z,93430.8
2023-03-10T08:05:04.005Z,93428.9
2023-03-10T08:06:06.477Z,93417.4
2023-03-10T08:07:09.089Z,93414.4
2023-03-10T08:08:11.291Z,93411.7
2023-03-10T08:09:13.549Z,93412.4
2023-03-10T08:10:15.810Z,93409.5
2023-03-10T08:11:17.812Z,93409.2
2023-03-10T08:12:19.521Z,93407.8
2023-03-10T08:13:22.140Z,93405.2
2023-03-10T08:14:24.496Z,93406.1
2023-03-10T08:15:26.449Z,93406.7
2023-03-10T08:16:29.305Z,93412.1
2023-03-10T08:17:32.186Z,93407.8
2023-03-10T08:18:34.758Z,93406.8
2023-03-10T08:19:37.888Z,93403.3
2023-03-10T08:20:41.629Z,93397.8
2023-03-10T08:21:44.392Z,93393.4
2023-03-10T08:22:46.951Z,93407.1
2023-03-10T08:23:49.238Z,93403.9
2023-03-10T08:24:51.815Z,93404.9
2023-03-10T08:25:54.368Z,93404.6
2023-03-10T08:26:56.899Z,93402.1
2023-03-10T08:27:59.441Z,93400.5
2023-03-10T08:29:01.412Z,93402
2023-03-10T08:30:03.954Z,93392.8
2023-03-10T08:31:07.326Z,93395.9
2023-03-10T08:32:10.448Z,93390.5
2023-03-10T08:33:13.128Z,93397
2023-03-10T08:34:15.379Z,93395.3
2023-03-10T08:35:17.932Z,93388.4
2023-03-10T08:36:20.932Z,93388.1
2023-03-10T08:37:23.330Z,93392.5
2023-03-10T08:38:25.307Z,93392.2
2023-03-10T08:39:29.000Z,93389.8
2023-03-10T08:40:31.548Z,93389.9
2023-03-10T08:41:37.589Z,93385.4
2023-03-10T08:42:39.870Z,93390.4
2023-03-10T08:43:42.156Z,93386.5
2023-03-10T08:44:44.758Z,93388.7
2023-03-10T08:45:47.332Z,93388.6
2023-03-10T08:46:49.887Z,93393.1
2023-03-10T08:47:52.623Z,93389.6
2023-03-10T08:48:55.234Z,93393.3
2023-03-10T08:49:57.570Z,93393.8
2023-03-10T08:50:59.831Z,93391.5
2023-03-10T08:52:02.429Z,93391.9
2023-03-10T08:53:05.050Z,93398.5
2023-03-10T08:54:07.460Z,93396
2023-03-10T08:55:09.999Z,93399
2023-03-10T08:56:12.552Z,93395.4
2023-03-10T08:57:15.079Z,93397.4
2023-03-10T08:58:17.622Z,93398.5
2023-03-10T08:59:20.173Z,93396.5
2023-03-10T09:00:22.435Z,93395.7
2023-03-10T09:01:25.025Z,93394.5
2023-03-10T09:02:27.417Z,93402.7
2023-03-10T09:04:35.321Z,93399.7
2023-03-10T09:05:38.004Z,93400.8
2023-03-10T09:06:40.633Z,93396.7
2023-03-10T09:07:43.500Z,93400.7
2023-03-10T09:08:45.808Z,93406.5
2023-03-10T09:09:48.070Z,93410.3
2023-03-10T09:10:50.605Z,93415.4
2023-03-10T09:11:52.841Z,93410.3
2023-03-10T09:14:00.605Z,93412.4
2023-03-10T09:15:03.334Z,93408.7
2023-03-10T09:16:06.528Z,93410.4
2023-03-10T09:18:15.494Z,93405.4
2023-03-10T09:19:17.845Z,93400.3
2023-03-10T09:20:20.543Z,93413.8
2023-03-10T09:21:23.096Z,93401.7
2023-03-10T09:22:25.645Z,93399.1
2023-03-10T09:23:28.236Z,93400.6
2023-03-10T09:24:30.503Z,93406
2023-03-10T09:25:33.009Z,93401.2
2023-03-10T09:26:35.577Z,93402.1
2023-03-10T09:27:37.792Z,93408.4
2023-03-10T09:28:40.018Z,93420.8
2023-03-10T09:30:47.608Z,93418.8
2023-03-10T09:31:50.341Z,93420
2023-03-10T09:32:53.474Z,93417.9
2023-03-10T09:33:56.244Z,93417.9
2023-03-10T09:34:58.774Z,93421.9
2023-03-10T09:37:09.698Z,93423.9
2023-03-10T09:38:12.021Z,93423.7
2023-03-10T09:39:14.336Z,93424.3
2023-03-10T09:40:16.852Z,93416.1
2023-03-10T09:41:19.397Z,93418.5
2023-03-10T09:43:26.696Z,93418.8
2023-03-10T09:44:29.223Z,93422.2
2023-03-10T09:45:31.759Z,93425.6
2023-03-10T09:46:34.345Z,93429.4
2023-03-10T09:47:36.594Z,93431.6
2023-03-10T09:48:39.121Z,93433.7
2023-03-10T09:49:41.647Z,93432.6
2023-03-10T09:50:43.883Z,93430.1
2023-03-10T09:51:45.605Z,93428.8
2023-03-10T09:52:47.941Z,93439.3
2023-03-10T09:53:51.306Z,93441.6
2023-03-10T09:54:53.598Z,93444.7
2023-03-10T09:55:56.165Z,93452.3
2023-03-10T09:56:58.407Z,93456.3
2023-03-10T09:58:04.509Z,93454.7
2023-03-10T09:59:06.817Z,93463
2023-03-10T10:00:09.164Z,93463.3
2023-03-10T10:01:11.450Z,93477.1
2023-03-10T10:02:13.724Z,93471.8
2023-03-10T10:03:16.000Z,93479.3
2023-03-10T10:04:19.155Z,93483.5
2023-03-10T10:05:21.890Z,93486.9
2023-03-10T10:07:31.398Z,93497.7
2023-03-10T10:08:33.804Z,93495
2023-03-10T10:09:36.076Z,93504.7
2023-03-10T10:10:38.609Z,93520.1
2023-03-10T10:11:40.842Z,93514.8
2023-03-10T10:12:42.854Z,93520.3
2023-03-10T10:17:00.087Z,93527.1
2023-03-10T10:19:08.031Z,93543.1
2023-03-10T10:20:10.442Z,93538.9
2023-03-10T10:21:13.105Z,93541.9
2023-03-10T10:22:15.410Z,93541.3
2023-03-10T10:23:17.949Z,93551.9
2023-03-10T10:24:20.551Z,93547.7
2023-03-10T10:25:23.142Z,93562.7
2023-03-10T10:26:25.744Z,93570.4
2023-03-10T10:27:28.258Z,93569.4
2023-03-10T10:28:31.183Z,93588.6
2023-03-10T10:29:33.719Z,93579.7
2023-03-10T10:30:36.584Z,93593
2023-03-10T10:31:39.261Z,93589.4
2023-03-10T10:33:47.751Z,93586.2
2023-03-10T10:34:50.008Z,93578.7
2023-03-10T10:35:52.134Z,93584.4
2023-03-10T10:36:54.450Z,93574.1
2023-03-10T10:37:57.027Z,93569.5
2023-03-10T10:38:59.568Z,93553.5
2023-03-10T10:40:02.268Z,93556.4
2023-03-10T10:42:09.315Z,93559.1
2023-03-10T10:43:11.863Z,93556.2
2023-03-10T10:44:14.104Z,93554.6
2023-03-10T10:45:16.326Z,93548.8
2023-03-10T10:46:18.857Z,93554.4
2023-03-10T10:47:21.199Z,93556.6
2023-03-10T10:48:23.734Z,93550.8
2023-03-10T10:49:26.259Z,93538.4
2023-03-10T10:50:28.806Z,93538.2
2023-03-10T10:51:31.348Z,93534.7
2023-03-10T10:52:33.589Z,93528.3
2023-03-10T10:53:35.914Z,93516.9
2023-03-10T10:54:38.520Z,93520.7
2023-03-10T10:55:40.852Z,93520.4
2023-03-10T10:56:43.405Z,93513.3
2023-03-10T10:57:45.948Z,93515.8
2023-03-10T10:58:48.477Z,93510.5
2023-03-10T10:59:50.992Z,93507.4
2023-03-10T11:00:53.410Z,93508.1
2023-03-10T11:01:55.494Z,93509.3
2023-03-10T11:02:58.432Z,93509.4
2023-03-10T11:04:00.973Z,93506.2
2023-03-10T11:05:02.931Z,93501.5
2023-03-10T11:06:05.164Z,93489.4
2023-03-10T11:07:07.689Z,93496.3
2023-03-10T11:08:09.678Z,93496.6
2023-03-10T11:09:13.973Z,93496.7
2023-03-10T11:10:16.263Z,93490.3
2023-03-10T11:11:18.564Z,93488.5
2023-03-10T11:12:21.289Z,93487.3
2023-03-10T11:13:23.551Z,93486.3
2023-03-10T11:14:25.770Z,93487.2
2023-03-10T11:15:28.491Z,93481.7
2023-03-10T11:16:30.803Z,93475.1
2023-03-10T11:17:32.842Z,93479.9
2023-03-10T11:18:34.833Z,93478
2023-03-10T11:19:37.070Z,93481.2
2023-03-10T11:20:39.578Z,93477.6
2023-03-10T11:21:41.549Z,93480.6
2023-03-10T11:22:43.904Z,93472.7
2023-03-10T11:23:45.893Z,93474.6
2023-03-10T11:24:48.166Z,93471.6
2023-03-10T11:25:50.450Z,93472.8
2023-03-10T11:26:52.764Z,93461.2
2023-03-10T11:27:55.063Z,93463.6
2023-03-10T11:28:57.587Z,93463.1
2023-03-10T11:29:59.806Z,93461.3
2023-03-10T11:31:02.027Z,93450.2
2023-03-10T11:32:04.704Z,93450.8
2023-03-10T11:33:07.378Z,93442.5
2023-03-10T11:34:09.654Z,93439.4
2023-03-10T11:35:11.916Z,93439.3
2023-03-10T11:36:14.184Z,93440.7
2023-03-10T11:37:16.852Z,93439.3
2023-03-10T11:38:19.363Z,93439.2
2023-03-10T11:39:21.597Z,93442.9
2023-03-10T11:40:24.129Z,93431.9
2023-03-10T11:41:26.668Z,93439.8
2023-03-10T11:42:29.306Z,93439.7
2023-03-10T11:43:31.589Z,93437.5
2023-03-10T11:44:33.860Z,93440.1
2023-03-10T11:45:35.788Z,93430.6
2023-03-10T11:46:38.371Z,93436.6
2023-03-10T11:48:45.747Z,93427.9
2023-03-10T11:49:48.234Z,93429.1
2023-03-10T11:50:50.831Z,93423.4
2023-03-10T11:51:53.098Z,93426.2
2023-03-10T11:52:55.343Z,93431
2023-03-10T11:53:57.890Z,93426.5
2023-03-10T11:55:00.121Z,93424
2023-03-10T11:56:01.821Z,93418.5
2023-03-10T11:57:04.371Z,93429
2023-03-10T11:58:06.867Z,93414.3
2023-03-10T11:59:09.496Z,93408.9
2023-03-10T12:00:11.774Z,93428.8
2023-03-10T12:01:13.716Z,93415.6
2023-03-10T12:02:16.215Z,93418.2
2023-03-10T12:03:19.134Z,93411.2
2023-03-10T12:04:21.513Z,93407.1
2023-03-10T12:05:24.457Z,93408.4
2023-03-10T12:06:27.973Z,93397.9
2023-03-10T12:07:30.199Z,93397.1
2023-03-10T12:08:32.746Z,93397.6
2023-03-10T12:09:35.007Z,93396.8
2023-03-10T12:10:37.534Z,93389.8
2023-03-10T12:11:40.064Z,93395.7
2023-03-10T12:12:42.597Z,93389.8
2023-03-10T12:13:44.684Z,93388.1
2023-03-10T12:14:46.981Z,93381.8
2023-03-10T12:15:49.480Z,93403.9
2023-03-10T12:16:52.137Z,93390
2023-03-10T12:17:54.753Z,93404.3
2023-03-10T12:18:56.987Z,93400.6
2023-03-10T12:19:59.493Z,93401
2023-03-10T12:21:02.017Z,93394.3
2023-03-10T12:22:04.560Z,93425.4
2023-03-10T12:23:06.895Z,93380.5
2023-03-10T12:24:09.455Z,93420.9
2023-03-10T12:25:11.732Z,93416.1
2023-03-10T12:26:13.961Z,93423.5
2023-03-10T12:27:16.233Z,93417.3
2023-03-10T12:28:18.727Z,93401.4
2023-03-10T12:29:21.418Z,93415.1
2023-03-10T12:31:28.977Z,93402.2
2023-03-10T12:32:32.068Z,93406.7
2023-03-10T12:33:34.718Z,93396.2
2023-03-10T12:34:37.283Z,93398.3
2023-03-10T12:35:40.049Z,93383.2
2023-03-10T12:36:42.053Z,93400.2
2023-03-10T12:37:44.591Z,93409.5
2023-03-10T12:38:46.634Z,93394.9
2023-03-10T12:39:48.674Z,93405.1
2023-03-10T12:40:51.193Z,93397.1
2023-03-10T12:41:53.790Z,93407.5
2023-03-10T12:42:56.235Z,93416.8
2023-03-10T12:43:58.824Z,93418.8
2023-03-10T12:45:01.455Z,93410.9
2023-03-10T12:46:04.061Z,93431.3
2023-03-10T12:47:06.745Z,93418.8
2023-03-10T12:48:09.126Z,93421.7
2023-03-10T12:49:11.729Z,93433.8
2023-03-10T12:50:13.732Z,93426.8
2023-03-10T12:52:21.511Z,93428.9
2023-03-10T12:53:24.190Z,93425.3
2023-03-10T12:54:26.432Z,93415.7
2023-03-10T12:55:28.969Z,93414.9
2023-03-10T12:56:31.271Z,93417.2
2023-03-10T12:57:33.813Z,93404.7
2023-03-10T12:58:35.767Z,93409.1
2023-03-10T12:59:38.281Z,93400.3
2023-03-10T13:00:41.002Z,93396.3
2023-03-10T13:02:48.653Z,93391.5
2023-03-10T13:03:51.234Z,93401.8